Time;durP1;ratioP1;P1;durP2;ratioP2;P2;SDS_P1;SDS_P2;PMS_P1;PMS_P2;Temp;Humidity;BMP_temperature;BMP_pressure;BME280_temperature;BME280_humidity;BME280_pressure;Samples;Min_cycle;Max_cycle;Signal;HPM_P1;HPM_P2
2021/06/15 00:00:13;;;;;;;12.60;8.23;;;20.20;82.80;;;;;;5010795;28;20994;-79
2021/06/15 00:02:40;;;;;;;9.80;7.70;;;20.20;83.10;;;;;;5012166;28;20957;-78
2021/06/15 00:05:09;;;;;;;12.13;7.80;;;20.10;83.20;;;;;;5011628;28;20461;-78
2021/06/15 00:07:37;;;;;;;9.20;7.97;;;20.10;83.30;;;;;;5011791;28;20474;-78
2021/06/15 00:10:08;;;;;;;12.10;7.60;;;20.10;83.10;;;;;;5011562;28;21095;-79
2021/06/15 00:12:35;;;;;;;14.40;7.97;;;20.10;83.10;;;;;;5010851;28;20434;-81
2021/06/15 00:15:04;;;;;;;15.57;8.73;;;20.10;83.20;;;;;;5011701;28;20790;-79
2021/06/15 00:17:31;;;;;;;12.63;8.60;;;20.10;83.40;;;;;;5011370;28;20457;-80
2021/06/15 00:19:58;;;;;;;11.90;7.57;;;20.10;83.40;;;;;;5026619;28;20481;-78
2021/06/15 00:22:24;;;;;;;14.70;7.60;;;20.10;83.70;;;;;;5025730;28;20979;-80
2021/06/15 00:24:51;;;;;;;10.20;7.00;;;20.10;83.70;;;;;;5011472;28;20426;-79
2021/06/15 00:27:18;;;;;;;13.23;7.60;;;20.10;83.90;;;;;;5026614;28;20437;-78
2021/06/15 00:29:45;;;;;;;10.03;7.50;;;20.10;83.60;;;;;;5030235;28;20422;-79
2021/06/15 00:32:12;;;;;;;9.80;6.93;;;20.10;85.00;;;;;;5016253;28;20449;-79
2021/06/15 00:34:39;;;;;;;9.50;7.23;;;20.10;84.00;;;;;;5011713;28;20836;-78
2021/06/15 00:37:06;;;;;;;11.33;6.73;;;20.10;84.10;;;;;;5011403;28;20438;-80
2021/06/15 00:39:32;;;;;;;7.13;6.43;;;20.10;84.20;;;;;;5011043;28;20640;-79
2021/06/15 00:42:00;;;;;;;8.70;7.43;;;20.10;84.20;;;;;;5025710;28;20941;-78
2021/06/15 00:44:27;;;;;;;9.57;7.50;;;20.10;84.60;;;;;;5022655;28;20515;-78
2021/06/15 00:46:53;;;;;;;9.80;7.90;;;20.10;84.40;;;;;;5011856;28;20476;-80
2021/06/15 00:49:25;;;;;;;10.50;8.67;;;20.10;84.40;;;;;;5012668;28;20840;-79
2021/06/15 00:51:53;;;;;;;9.03;7.40;;;20.10;83.90;;;;;;5021474;28;20461;-79
2021/06/15 00:54:22;;;;;;;11.80;7.87;;;20.00;84.20;;;;;;5035062;28;20468;-78
2021/06/15 00:56:49;;;;;;;13.73;8.77;;;20.00;84.40;;;;;;5033178;28;20986;-79
2021/06/15 00:59:16;;;;;;;12.87;10.43;;;20.00;84.40;;;;;;5017254;28;20441;-79
2021/06/15 01:01:45;;;;;;;15.83;8.80;;;20.00;84.50;;;;;;5013503;28;20543;-78
2021/06/15 01:04:13;;;;;;;14.03;8.97;;;20.00;84.50;;;;;;5014100;28;20436;-78
2021/06/15 01:06:55;;;;;;;11.03;8.30;;;20.00;84.40;;;;;;5019663;28;21053;-80
2021/06/15 01:09:46;;;;;;;10.67;8.10;;;20.00;84.60;;;;;;5033438;28;20459;-78
2021/06/15 01:12:42;;;;;;;10.10;8.13;;;20.00;84.80;;;;;;5033451;28;20800;-79
2021/06/15 01:15:13;;;;;;;11.17;8.57;;;19.90;84.80;;;;;;5032959;28;20464;-80
2021/06/15 01:17:57;;;;;;;10.67;7.70;;;19.90;85.00;;;;;;5028927;28;20505;-80
2021/06/15 01:20:33;;;;;;;12.80;7.40;;;19.90;85.30;;;;;;5016974;28;20451;-77
2021/06/15 01:23:37;;;;;;;8.80;7.90;;;19.90;85.50;;;;;;5017038;28;20963;-79
2021/06/15 01:26:26;;;;;;;8.23;7.00;;;19.80;85.50;;;;;;5015457;28;20477;-78
2021/06/15 01:29:02;;;;;;;9.77;7.57;;;19.80;85.80;;;;;;5015114;28;20447;-79
2021/06/15 01:31:32;;;;;;;9.60;7.40;;;19.80;86.20;;;;;;5029239;28;20464;-78
2021/06/15 01:34:04;;;;;;;8.27;7.33;;;19.80;86.30;;;;;;5034309;28;20527;-80
2021/06/15 01:36:38;;;;;;;14.50;7.40;;;19.70;86.20;;;;;;5028406;28;20477;-78
2021/06/15 01:39:13;;;;;;;10.70;8.10;;;19.70;86.30;;;;;;4997135;28;20467;-80
2021/06/15 01:41:46;;;;;;;9.43;6.80;;;19.70;86.60;;;;;;5013945;28;21086;-79
2021/06/15 01:44:14;;;;;;;10.40;6.90;;;19.60;86.90;;;;;;5015272;28;20425;-79
2021/06/15 01:47:01;;;;;;;7.53;6.70;;;19.60;86.80;;;;;;5033645;28;20992;-81
2021/06/15 01:49:38;;;;;;;10.43;8.07;;;19.60;86.90;;;;;;5016539;28;20452;-80
2021/06/15 01:52:12;;;;;;;14.93;7.90;;;19.50;87.20;;;;;;5022949;28;20566;-78
2021/06/15 01:54:43;;;;;;;8.40;7.60;;;19.50;87.50;;;;;;5013469;28;20986;-79
2021/06/15 01:57:19;;;;;;;10.33;7.60;;;19.50;88.00;;;;;;5014090;28;20533;-79
2021/06/15 01:59:55;;;;;;;8.50;7.10;;;19.50;88.00;;;;;;5011584;28;20429;-78
2021/06/15 02:02:22;;;;;;;12.57;7.60;;;19.40;87.90;;;;;;5013003;28;20422;-78
2021/06/15 02:04:52;;;;;;;8.57;7.77;;;19.40;87.90;;;;;;5012205;28;20439;-78
2021/06/15 02:07:26;;;;;;;9.90;7.67;;;19.40;88.00;;;;;;5023395;28;20449;-78
2021/06/15 02:10:05;;;;;;;10.37;7.03;;;19.40;87.90;;;;;;5016053;28;20448;-79
2021/06/15 02:12:49;;;;;;;8.57;7.77;;;19.30;87.90;;;;;;5032351;28;20440;-80
2021/06/15 02:15:37;;;;;;;10.53;8.30;;;19.30;88.10;;;;;;5032834;28;21075;-80
2021/06/15 02:18:24;;;;;;;10.33;8.07;;;19.30;88.30;;;;;;5032019;28;20460;-80
2021/06/15 02:21:14;;;;;;;10.10;7.83;;;19.20;88.50;;;;;;5029717;28;20463;-78
2021/06/15 02:23:45;;;;;;;9.40;8.23;;;19.20;89.40;;;;;;5012508;28;20517;-81
2021/06/15 02:26:17;;;;;;;8.90;7.93;;;19.10;89.80;;;;;;4995434;28;20496;-79
2021/06/15 02:28:50;;;;;;;9.10;8.03;;;19.10;89.90;;;;;;5012398;28;20429;-80
2021/06/15 02:31:25;;;;;;;10.10;7.80;;;19.10;90.00;;;;;;5024282;28;21013;-81
2021/06/15 02:34:04;;;;;;;11.23;7.53;;;19.10;90.00;;;;;;5024094;28;20416;-77
2021/06/15 02:36:37;;;;;;;8.40;7.50;;;19.10;90.10;;;;;;5030793;28;20472;-81
2021/06/15 02:39:07;;;;;;;16.17;8.47;;;19.10;90.20;;;;;;5032658;28;20468;-80
2021/06/15 02:41:37;;;;;;;12.80;8.93;;;19.10;90.30;;;;;;5031393;28;20478;-79
2021/06/15 02:44:06;;;;;;;12.53;7.80;;;19.10;90.70;;;;;;5028671;28;20452;-78
2021/06/15 02:46:36;;;;;;;11.60;7.70;;;19.00;90.80;;;;;;5011596;28;21139;-79
2021/06/15 02:49:09;;;;;;;20.17;8.20;;;19.00;90.80;;;;;;5011614;28;20453;-79
2021/06/15 02:51:44;;;;;;;9.50;8.17;;;19.00;90.80;;;;;;5014567;28;20473;-80
2021/06/15 02:54:16;;;;;;;10.50;8.60;;;18.90;90.70;;;;;;5014711;28;20479;-80
2021/06/15 02:56:47;;;;;;;12.90;8.20;;;18.90;90.70;;;;;;5012265;28;20457;-80
2021/06/15 02:59:15;;;;;;;9.50;6.30;;;18.80;90.70;;;;;;5012957;28;20468;-78
2021/06/15 03:01:46;;;;;;;12.67;7.03;;;18.80;90.90;;;;;;5017391;28;20835;-78
2021/06/15 03:04:15;;;;;;;11.10;7.47;;;18.80;91.10;;;;;;5025342;28;20818;-77
2021/06/15 03:06:42;;;;;;;9.60;8.40;;;18.70;91.20;;;;;;5030893;28;20564;-81
2021/06/15 03:09:11;;;;;;;11.00;7.20;;;18.70;91.30;;;;;;5030966;28;20448;-80
2021/06/15 03:11:47;;;;;;;10.80;7.80;;;18.60;91.40;;;;;;5031597;28;20471;-79
2021/06/15 03:14:25;;;;;;;8.47;7.07;;;18.50;91.50;;;;;;5032652;28;20499;-78
2021/06/15 03:17:00;;;;;;;10.60;7.00;;;18.50;91.60;;;;;;5010940;28;20480;-80
2021/06/15 03:19:51;;;;;;;8.37;7.37;;;18.50;91.80;;;;;;5011463;28;20460;-78
2021/06/15 03:22:22;;;;;;;7.73;6.90;;;18.50;91.80;;;;;;5012269;28;20552;-79
2021/06/15 03:24:58;;;;;;;8.80;7.90;;;18.50;91.80;;;;;;5010959;28;20441;-79
2021/06/15 03:27:51;;;;;;;10.03;6.93;;;18.40;91.90;;;;;;5010941;28;20428;-78
2021/06/15 03:30:20;;;;;;;11.90;8.73;;;18.40;92.20;;;;;;5033609;28;20513;-80
2021/06/15 03:32:54;;;;;;;10.70;7.00;;;18.40;92.40;;;;;;5051113;28;20466;-78
2021/06/15 03:35:26;;;;;;;13.87;7.67;;;18.30;92.50;;;;;;5051469;28;20459;-81
2021/06/15 03:38:03;;;;;;;9.77;6.90;;;18.30;92.80;;;;;;5029998;28;20544;-79
2021/06/15 03:40:35;;;;;;;12.50;7.63;;;18.30;92.80;;;;;;5011983;28;20971;-78
2021/06/15 03:43:05;;;;;;;11.17;6.97;;;18.30;92.80;;;;;;5012270;28;20421;-80
2021/06/15 03:45:36;;;;;;;16.20;7.87;;;18.30;93.00;;;;;;5012254;28;20453;-80
2021/06/15 03:48:05;;;;;;;12.83;8.47;;;18.30;93.30;;;;;;5030569;28;20462;-78
2021/06/15 03:50:34;;;;;;;10.87;8.27;;;18.30;93.60;;;;;;5030361;28;20492;-80
2021/06/15 03:53:05;;;;;;;10.37;8.27;;;18.30;93.60;;;;;;5014327;28;20445;-78
2021/06/15 03:55:32;;;;;;;11.90;8.13;;;18.30;93.70;;;;;;5010458;28;20464;-77
2021/06/15 03:58:01;;;;;;;11.07;7.93;;;18.30;93.70;;;;;;5011814;28;20445;-79
2021/06/15 04:00:29;;;;;;;10.33;8.23;;;18.30;93.70;;;;;;5011824;28;20460;-78
2021/06/15 04:02:57;;;;;;;19.03;8.53;;;18.40;93.80;;;;;;5030492;28;20802;-79
2021/06/15 04:05:28;;;;;;;17.33;7.77;;;18.40;94.00;;;;;;5031197;28;20464;-79
2021/06/15 04:08:00;;;;;;;14.60;8.53;;;18.40;94.40;;;;;;5015781;28;20461;-78
2021/06/15 04:10:29;;;;;;;14.10;10.33;;;18.40;94.60;;;;;;5011860;28;20467;-81
2021/06/15 04:13:00;;;;;;;12.33;9.90;;;18.40;94.80;;;;;;5010990;28;20520;-80
2021/06/15 04:15:27;;;;;;;13.40;9.07;;;18.40;95.00;;;;;;5014958;28;20478;-78
2021/06/15 04:17:59;;;;;;;14.50;9.10;;;18.40;94.70;;;;;;5030477;28;20559;-78
2021/06/15 04:20:29;;;;;;;12.43;9.40;;;18.40;94.70;;;;;;5033437;28;20496;-77
2021/06/15 04:22:58;;;;;;;12.10;9.70;;;18.50;94.90;;;;;;5017383;28;20480;-79
2021/06/15 04:25:31;;;;;;;14.37;10.27;;;18.50;95.00;;;;;;5029711;28;20879;-80
2021/06/15 04:28:00;;;;;;;12.57;9.60;;;18.60;95.20;;;;;;5035942;28;20467;-78
2021/06/15 04:30:29;;;;;;;12.90;10.73;;;18.60;95.00;;;;;;5035136;28;20502;-78
2021/06/15 04:33:00;;;;;;;11.87;10.40;;;18.70;95.20;;;;;;5055650;28;20451;-79
2021/06/15 04:35:51;;;;;;;13.93;10.63;;;18.60;95.90;;;;;;5053685;28;20845;-78
2021/06/15 04:38:22;;;;;;;15.43;10.33;;;18.70;95.90;;;;;;5015574;28;20457;-79
2021/06/15 04:41:00;;;;;;;13.90;10.87;;;18.70;96.50;;;;;;5013828;28;20464;-81
2021/06/15 04:43:39;;;;;;;17.27;11.73;;;18.70;96.20;;;;;;5015690;28;20431;-80
2021/06/15 04:46:31;;;;;;;12.33;10.73;;;18.70;96.70;;;;;;5030418;28;20467;-79
2021/06/15 04:49:08;;;;;;;13.63;10.43;;;18.70;96.10;;;;;;5033681;28;20505;-79
2021/06/15 04:51:35;;;;;;;16.83;12.63;;;18.70;95.90;;;;;;5029000;28;20472;-81
2021/06/15 04:54:04;;;;;;;15.33;11.97;;;18.80;96.10;;;;;;5015332;28;20421;-79
2021/06/15 04:56:31;;;;;;;15.53;12.57;;;18.90;96.00;;;;;;5014730;28;20489;-76
2021/06/15 04:59:01;;;;;;;18.10;12.10;;;19.00;95.90;;;;;;5014915;28;20488;-77
2021/06/15 05:01:29;;;;;;;17.23;13.07;;;18.90;95.90;;;;;;5014717;28;20998;-79
2021/06/15 05:03:56;;;;;;;17.00;12.73;;;18.90;96.00;;;;;;5015073;28;20973;-79
2021/06/15 05:06:23;;;;;;;16.40;13.80;;;18.80;96.90;;;;;;5013274;28;20464;-78
2021/06/15 05:09:01;;;;;;;27.83;16.10;;;18.90;97.60;;;;;;5013759;28;20444;-80
2021/06/15 05:11:33;;;;;;;25.23;13.70;;;18.90;97.50;;;;;;5013093;28;20552;-81
2021/06/15 05:14:05;;;;;;;21.97;15.10;;;18.90;98.00;;;;;;5015123;28;20461;-78
2021/06/15 05:16:36;;;;;;;20.20;16.10;;;18.90;98.80;;;;;;5021791;28;20467;-80
2021/06/15 05:19:04;;;;;;;23.63;16.90;;;18.90;99.30;;;;;;5048157;28;20542;-79
2021/06/15 05:21:52;;;;;;;21.13;16.87;;;18.90;99.90;;;;;;5044492;28;20827;-79
2021/06/15 05:24:47;;;;;;;24.20;18.43;;;19.00;99.90;;;;;;5054519;28;20499;-77
2021/06/15 05:27:15;;;;;;;26.43;20.53;;;19.00;99.90;;;;;;5054251;28;20438;-79
2021/06/15 05:29:42;;;;;;;22.50;20.00;;;19.10;99.90;;;;;;5043852;28;20437;-80
2021/06/15 05:32:10;;;;;;;24.97;18.43;;;19.10;99.90;;;;;;5014628;28;20421;-79
2021/06/15 05:34:38;;;;;;;24.17;19.30;;;19.20;99.90;;;;;;5040936;28;20803;-78
2021/06/15 05:37:06;;;;;;;28.70;20.97;;;19.10;99.90;;;;;;5034693;28;21001;-79
2021/06/15 05:39:34;;;;;;;23.90;19.90;;;19.20;99.90;;;;;;5016404;28;20452;-80
2021/06/15 05:42:01;;;;;;;29.80;19.93;;;19.20;99.90;;;;;;5033363;28;20850;-78
2021/06/15 05:44:28;;;;;;;23.60;20.40;;;19.20;99.90;;;;;;5033597;28;20527;-78
2021/06/15 05:46:55;;;;;;;24.63;20.33;;;19.20;99.90;;;;;;5032249;28;20497;-81
2021/06/15 05:49:22;;;;;;;28.40;22.43;;;19.30;99.90;;;;;;5034186;28;20446;-79
2021/06/15 05:52:11;;;;;;;24.23;20.27;;;19.40;99.90;;;;;;5028075;28;20561;-82
2021/06/15 05:54:42;;;;;;;25.47;20.33;;;19.50;99.90;;;;;;5014126;28;20520;-81
2021/06/15 05:57:09;;;;;;;28.90;22.10;;;19.60;99.90;;;;;;5014194;28;20478;-82
2021/06/15 05:59:39;;;;;;;24.83;20.40;;;19.80;99.90;;;;;;5021317;28;20468;-80
2021/06/15 06:02:06;;;;;;;28.37;23.13;;;19.90;99.90;;;;;;5035239;28;20413;-78
2021/06/15 06:04:47;;;;;;;34.97;23.70;;;20.00;99.90;;;;;;5034058;28;20488;-80
2021/06/15 06:10:00;;;;;;;29.63;21.77;;;20.20;99.90;;;;;;5014512;28;20526;-82
2021/06/15 06:12:30;;;;;;;23.53;21.03;;;20.30;99.90;;;;;;5053467;28;20821;-82
2021/06/15 06:14:58;;;;;;;31.03;22.20;;;20.50;99.90;;;;;;5037278;28;20520;-80
2021/06/15 06:17:26;;;;;;;27.70;21.80;;;20.60;99.90;;;;;;5031671;28;20519;-81
2021/06/15 06:20:08;;;;;;;29.00;24.20;;;20.70;99.90;;;;;;5013270;28;20568;-81
2021/06/15 06:22:40;;;;;;;30.83;22.37;;;20.80;99.90;;;;;;5010163;28;20444;-82
2021/06/15 06:25:09;;;;;;;29.37;22.63;;;21.00;99.60;;;;;;5031578;28;20464;-81
2021/06/15 06:27:36;;;;;;;23.80;21.07;;;21.10;99.80;;;;;;5031470;28;20523;-81
2021/06/15 06:30:07;;;;;;;25.50;22.77;;;21.10;98.70;;;;;;5023837;28;20493;-82
2021/06/15 06:32:35;;;;;;;24.60;21.97;;;21.20;98.60;;;;;;5012343;28;20429;-82
2021/06/15 06:35:04;;;;;;;29.80;23.23;;;21.30;98.40;;;;;;5011748;28;20457;-81
2021/06/15 06:37:31;;;;;;;27.53;22.60;;;21.60;97.40;;;;;;5024838;28;20471;-81
2021/06/15 06:39:58;;;;;;;25.73;21.60;;;21.70;97.00;;;;;;5032490;28;20462;-81
2021/06/15 06:42:25;;;;;;;23.47;20.43;;;21.90;96.60;;;;;;5033778;28;20420;-80
2021/06/15 06:44:52;;;;;;;30.23;21.80;;;21.90;95.90;;;;;;5031291;28;20430;-81
2021/06/15 06:47:19;;;;;;;30.17;21.93;;;22.10;95.00;;;;;;5013663;28;20449;-81
2021/06/15 06:49:46;;;;;;;25.90;20.90;;;22.30;94.60;;;;;;5014859;28;20460;-81
2021/06/15 06:52:16;;;;;;;27.63;21.03;;;22.50;94.80;;;;;;5031017;28;20467;-76
2021/06/15 06:54:47;;;;;;;25.97;21.73;;;22.50;94.10;;;;;;5032083;28;20840;-81
2021/06/15 06:57:14;;;;;;;29.53;22.50;;;22.60;93.40;;;;;;5032626;28;20465;-79
2021/06/15 06:59:41;;;;;;;23.87;20.90;;;22.60;93.10;;;;;;5031683;28;20548;-81
2021/06/15 07:02:08;;;;;;;26.80;22.00;;;22.70;92.90;;;;;;5017083;28;20450;-81
2021/06/15 07:04:35;;;;;;;26.73;22.47;;;22.70;93.00;;;;;;5012269;28;20485;-81
2021/06/15 07:07:02;;;;;;;27.50;21.10;;;22.80;92.60;;;;;;5012295;28;20470;-80
2021/06/15 07:09:29;;;;;;;22.73;20.07;;;22.90;92.30;;;;;;5030235;28;20454;-80
2021/06/15 07:11:56;;;;;;;25.47;22.70;;;22.90;91.30;;;;;;5047076;28;20459;-81
2021/06/15 07:14:23;;;;;;;25.50;21.80;;;22.90;91.90;;;;;;5052407;28;20429;-82
2021/06/15 07:16:50;;;;;;;22.13;19.40;;;23.10;91.60;;;;;;5034963;28;20483;-81
2021/06/15 07:19:17;;;;;;;25.77;20.43;;;23.10;91.20;;;;;;5012709;28;20451;-81
2021/06/15 07:21:44;;;;;;;22.00;19.40;;;23.20;91.00;;;;;;5011943;28;20461;-81
2021/06/15 07:24:12;;;;;;;23.93;20.20;;;23.30;91.10;;;;;;5011732;28;20483;-81
2021/06/15 07:26:39;;;;;;;20.50;18.20;;;23.20;91.00;;;;;;5013001;28;20470;-78
2021/06/15 07:29:06;;;;;;;21.00;18.73;;;23.30;90.00;;;;;;5014430;28;20449;-81
2021/06/15 07:31:35;;;;;;;19.40;17.30;;;23.30;90.40;;;;;;5032062;28;20464;-79
2021/06/15 07:34:02;;;;;;;20.27;18.20;;;23.30;90.60;;;;;;5031325;28;20829;-81
2021/06/15 07:36:29;;;;;;;22.50;19.20;;;23.60;89.30;;;;;;5025997;28;20487;-82
2021/06/15 07:38:56;;;;;;;21.63;17.50;;;23.60;88.80;;;;;;5012107;28;20563;-82
2021/06/15 07:41:23;;;;;;;20.73;18.53;;;23.80;88.20;;;;;;5010791;28;20463;-81
2021/06/15 07:43:49;;;;;;;19.73;17.63;;;23.90;86.40;;;;;;5011493;28;20950;-81
2021/06/15 07:46:21;;;;;;;20.33;17.70;;;24.00;84.40;;;;;;5010254;28;20530;-81
2021/06/15 07:48:51;;;;;;;19.50;17.47;;;24.00;86.00;;;;;;5011919;28;20528;-81
2021/06/15 07:51:18;;;;;;;18.67;16.77;;;24.20;86.30;;;;;;5011539;28;21052;-81
2021/06/15 07:53:45;;;;;;;20.57;16.83;;;24.30;84.10;;;;;;5011289;28;20419;-81
2021/06/15 07:56:12;;;;;;;20.20;18.00;;;24.30;85.50;;;;;;5011867;28;20893;-82
2021/06/15 07:58:39;;;;;;;19.30;17.40;;;24.30;84.00;;;;;;5010895;28;20520;-82
2021/06/15 08:01:06;;;;;;;19.30;16.83;;;24.20;85.20;;;;;;5011411;28;20482;-80
2021/06/15 08:03:33;;;;;;;20.03;18.07;;;24.30;85.30;;;;;;5012443;28;20822;-79
2021/06/15 08:06:03;;;;;;;20.27;16.40;;;24.30;82.80;;;;;;5011878;28;20468;-77
2021/06/15 08:08:32;;;;;;;17.13;15.40;;;24.40;82.90;;;;;;5012273;28;20450;-79
2021/06/15 08:11:02;;;;;;;19.57;14.63;;;24.40;83.70;;;;;;5027043;28;20856;-80
2021/06/15 08:13:31;;;;;;;17.27;14.60;;;24.50;84.70;;;;;;5050421;28;20422;-79
2021/06/15 08:15:58;;;;;;;18.13;16.23;;;24.60;83.80;;;;;;5034486;28;20825;-81
2021/06/15 08:18:26;;;;;;;18.53;15.00;;;24.60;82.90;;;;;;5032861;28;20451;-80
2021/06/15 08:20:53;;;;;;;32.73;16.80;;;24.70;82.10;;;;;;5031293;28;20466;-81
2021/06/15 08:23:22;;;;;;;21.07;14.97;;;24.70;83.90;;;;;;5031508;28;20870;-80
2021/06/15 08:25:49;;;;;;;18.30;16.47;;;24.90;83.80;;;;;;5030121;28;20479;-81
2021/06/15 08:28:17;;;;;;;22.00;14.83;;;24.90;80.50;;;;;;5031980;28;20835;-79
2021/06/15 08:30:44;;;;;;;17.47;14.87;;;25.10;79.70;;;;;;5027746;28;20471;-82
2021/06/15 08:33:11;;;;;;;20.47;14.47;;;25.00;81.10;;;;;;5010813;28;20414;-81
2021/06/15 08:35:38;;;;;;;22.07;15.30;;;25.10;80.40;;;;;;5001477;28;21017;-80
2021/06/15 08:38:05;;;;;;;20.00;14.83;;;25.20;80.00;;;;;;5011510;28;20889;-81
2021/06/15 08:40:32;;;;;;;18.30;13.93;;;25.30;78.40;;;;;;5011911;28;20850;-81
2021/06/15 08:43:01;;;;;;;15.63;13.30;;;25.30;77.80;;;;;;4994178;28;20433;-81
2021/06/15 08:45:28;;;;;;;17.77;12.33;;;25.40;78.60;;;;;;5009818;28;20468;-81
2021/06/15 08:47:56;;;;;;;16.67;12.23;;;25.40;78.40;;;;;;5010388;28;20531;-81
2021/06/15 08:50:26;;;;;;;16.67;10.53;;;25.40;77.90;;;;;;5012056;28;20544;-81
2021/06/15 08:52:56;;;;;;;11.60;10.40;;;25.40;76.20;;;;;;5027649;28;20448;-80
2021/06/15 08:55:29;;;;;;;19.23;11.10;;;25.50;75.10;;;;;;5030011;28;20460;-80
2021/06/15 08:58:18;;;;;;;12.70;9.93;;;25.50;73.60;;;;;;5030014;28;20504;-81
2021/06/15 09:00:44;;;;;;;11.70;7.87;;;25.70;74.80;;;;;;5011954;28;20460;-81
2021/06/15 09:03:20;;;;;;;12.70;9.07;;;25.70;74.20;;;;;;4995496;28;20424;-81
2021/06/15 09:05:47;;;;;;;15.43;7.93;;;25.70;73.80;;;;;;5009713;28;20460;-79
2021/06/15 09:08:17;;;;;;;10.07;9.03;;;25.70;74.00;;;;;;5011061;28;20946;-80
2021/06/15 09:10:53;;;;;;;10.50;7.87;;;25.90;71.10;;;;;;5012248;28;20449;-80
2021/06/15 09:13:39;;;;;;;8.07;7.10;;;26.00;70.90;;;;;;5013813;28;20425;-79
2021/06/15 09:16:35;;;;;;;10.83;7.30;;;26.10;69.40;;;;;;5012907;28;20563;-78
2021/06/15 09:19:17;;;;;;;8.93;6.40;;;26.10;65.80;;;;;;5015005;28;20447;-81
2021/06/15 09:21:46;;;;;;;6.40;5.73;;;26.10;68.70;;;;;;5016661;28;20496;-79
2021/06/15 09:24:23;;;;;;;9.70;6.70;;;26.00;69.40;;;;;;5018382;28;20417;-78
2021/06/15 09:27:10;;;;;;;11.60;7.17;;;26.00;66.60;;;;;;5015887;28;20472;-79
2021/06/15 09:29:48;;;;;;;6.13;5.40;;;26.00;67.20;;;;;;5016987;28;20532;-79
2021/06/15 09:32:18;;;;;;;8.30;6.77;;;26.00;63.20;;;;;;5030664;28;20914;-80
2021/06/15 09:34:59;;;;;;;9.57;5.93;;;26.10;66.80;;;;;;5013368;28;20452;-79
2021/06/15 09:37:48;;;;;;;10.90;5.77;;;26.20;65.90;;;;;;5014706;28;20581;-80
2021/06/15 09:40:30;;;;;;;9.50;5.80;;;26.30;65.70;;;;;;5017285;28;20457;-78
2021/06/15 09:42:59;;;;;;;8.20;5.87;;;26.30;66.30;;;;;;5029933;28;20414;-80
2021/06/15 09:45:36;;;;;;;8.07;7.27;;;26.40;65.90;;;;;;5016568;28;20468;-80
2021/06/15 09:48:24;;;;;;;10.60;6.83;;;26.30;67.10;;;;;;5033933;28;20462;-78
2021/06/15 09:51:00;;;;;;;9.50;6.03;;;26.20;65.60;;;;;;5034037;28;20475;-80
2021/06/15 09:53:39;;;;;;;5.97;4.90;;;26.30;66.60;;;;;;5013129;28;20437;-79
2021/06/15 09:56:08;;;;;;;9.17;5.80;;;26.30;65.20;;;;;;5013649;28;20464;-80
2021/06/15 09:58:47;;;;;;;10.97;6.77;;;26.40;67.80;;;;;;5012747;28;20945;-80
2021/06/15 10:01:40;;;;;;;6.37;5.73;;;26.50;67.00;;;;;;5013291;28;20507;-80
2021/06/15 10:04:10;;;;;;;6.43;5.40;;;26.70;66.60;;;;;;5014067;28;20835;-79
2021/06/15 10:06:46;;;;;;;10.43;5.47;;;26.80;67.70;;;;;;5013015;28;20987;-77
2021/06/15 10:09:31;;;;;;;11.27;4.97;;;26.80;62.40;;;;;;5013025;28;20467;-80
2021/06/15 10:12:07;;;;;;;8.23;6.10;;;26.90;65.50;;;;;;5044043;28;20451;-79
2021/06/15 10:14:37;;;;;;;12.80;6.53;;;26.90;64.70;;;;;;5046909;28;20450;-80
2021/06/15 10:17:04;;;;;;;17.47;6.37;;;27.00;63.90;;;;;;5015739;28;20464;-80
2021/06/15 10:19:32;;;;;;;6.03;5.53;;;27.00;62.50;;;;;;5034025;28;20478;-80
2021/06/15 10:21:59;;;;;;;6.50;4.93;;;27.10;65.00;;;;;;5023811;28;20465;-79
2021/06/15 10:24:26;;;;;;;8.70;5.50;;;27.20;65.50;;;;;;5014130;28;20517;-80
2021/06/15 10:27:07;;;;;;;7.00;5.67;;;27.20;64.60;;;;;;5024791;28;20452;-80
2021/06/15 10:29:53;;;;;;;8.93;5.20;;;27.20;64.40;;;;;;5028052;28;20503;-79
2021/06/15 10:32:23;;;;;;;9.20;5.97;;;27.40;61.60;;;;;;5013671;28;20436;-79
2021/06/15 10:35:06;;;;;;;7.83;6.20;;;27.40;62.20;;;;;;5013096;28;20479;-79
2021/06/15 10:37:37;;;;;;;9.13;5.70;;;27.30;60.90;;;;;;5012830;28;20487;-78
2021/06/15 10:40:27;;;;;;;9.27;7.37;;;27.30;61.20;;;;;;5011557;28;20544;-77
2021/06/15 10:43:20;;;;;;;8.87;6.97;;;27.40;62.20;;;;;;5028483;28;20438;-80
2021/06/15 10:45:53;;;;;;;9.00;6.50;;;27.40;62.30;;;;;;5028378;28;20506;-79
2021/06/15 10:48:20;;;;;;;9.20;6.60;;;27.40;62.40;;;;;;5012846;28;20451;-77
2021/06/15 10:50:52;;;;;;;5.83;5.27;;;27.40;62.20;;;;;;5012678;28;20461;-80
2021/06/15 10:53:36;;;;;;;7.10;5.80;;;27.60;59.90;;;;;;5013099;28;20445;-77
2021/06/15 10:56:09;;;;;;;7.57;6.13;;;27.50;60.10;;;;;;5028757;28;20460;-80
2021/06/15 10:58:39;;;;;;;9.60;5.30;;;27.30;60.80;;;;;;5027010;28;20834;-79
2021/06/15 11:01:36;;;;;;;6.00;5.33;;;27.30;60.50;;;;;;5019233;28;20539;-78
2021/06/15 11:04:12;;;;;;;11.13;5.70;;;27.30;61.30;;;;;;5047382;28;20428;-77
2021/06/15 11:06:52;;;;;;;12.80;5.70;;;27.40;60.30;;;;;;5040856;28;20472;-78
2021/06/15 11:09:23;;;;;;;10.93;4.87;;;27.50;59.70;;;;;;5011407;28;20950;-77
2021/06/15 11:11:59;;;;;;;6.80;5.40;;;27.50;59.00;;;;;;5012422;28;20503;-78
2021/06/15 11:14:26;;;;;;;9.70;5.30;;;27.40;58.90;;;;;;5027069;28;20474;-76
2021/06/15 11:17:06;;;;;;;6.87;4.83;;;27.40;59.80;;;;;;5026675;28;20472;-79
2021/06/15 11:19:37;;;;;;;7.47;5.30;;;27.40;59.70;;;;;;5032708;28;20467;-77
2021/06/15 11:22:07;;;;;;;8.17;5.03;;;27.40;59.10;;;;;;5037062;28;20536;-79
2021/06/15 11:24:45;;;;;;;10.07;4.87;;;27.50;58.30;;;;;;5011568;28;20483;-80
2021/06/15 11:27:19;;;;;;;6.23;4.40;;;27.60;61.80;;;;;;5011230;28;20448;-79
2021/06/15 11:29:48;;;;;;;5.40;4.90;;;27.60;56.70;;;;;;5010740;28;20498;-76
2021/06/15 11:32:18;;;;;;;4.97;4.47;;;27.70;58.10;;;;;;5041291;28;20486;-79
2021/06/15 11:35:01;;;;;;;6.57;4.60;;;27.70;56.50;;;;;;5051647;28;20423;-78
2021/06/15 11:37:33;;;;;;;5.77;4.70;;;27.80;58.00;;;;;;5033607;28;20460;-78
2021/06/15 11:40:22;;;;;;;6.80;4.00;;;27.80;55.60;;;;;;5010955;28;20883;-78
2021/06/15 11:43:17;;;;;;;5.27;4.77;;;27.90;56.90;;;;;;5012404;28;20559;-78
2021/06/15 11:45:52;;;;;;;6.53;4.70;;;27.90;55.90;;;;;;5023908;28;20543;-78
2021/06/15 11:48:22;;;;;;;7.50;4.70;;;27.90;55.90;;;;;;5055092;28;21027;-79
2021/06/15 11:50:55;;;;;;;5.90;4.40;;;27.70;55.70;;;;;;5037305;28;20802;-80
2021/06/15 11:53:23;;;;;;;10.73;5.47;;;27.60;58.10;;;;;;5015460;28;20471;-79
2021/06/15 11:56:04;;;;;;;5.87;3.73;;;27.70;55.70;;;;;;5014876;28;20465;-76
2021/06/15 11:58:36;;;;;;;4.57;4.07;;;28.10;56.30;;;;;;5012728;28;20469;-77
2021/06/15 12:01:10;;;;;;;7.07;4.77;;;28.10;56.00;;;;;;5012599;28;21314;-78
2021/06/15 12:03:40;;;;;;;5.57;4.83;;;28.20;55.50;;;;;;5043383;28;20413;-75
2021/06/15 12:06:09;;;;;;;5.20;4.70;;;28.10;52.30;;;;;;5046798;28;20969;-79
2021/06/15 12:08:38;;;;;;;10.57;5.00;;;28.10;54.60;;;;;;5011242;28;20959;-77
2021/06/15 12:11:12;;;;;;;7.50;4.30;;;28.00;55.10;;;;;;4994876;28;20460;-77
2021/06/15 12:13:41;;;;;;;6.63;4.13;;;28.20;56.10;;;;;;5011100;28;20425;-77
2021/06/15 12:16:12;;;;;;;7.73;4.30;;;28.30;54.60;;;;;;5011572;28;20465;-78
2021/06/15 12:18:45;;;;;;;3.00;2.67;;;28.20;53.50;;;;;;5027567;28;20472;-78
2021/06/15 12:21:22;;;;;;;7.00;3.63;;;28.30;54.80;;;;;;5011497;28;20469;-78
2021/06/15 12:24:06;;;;;;;4.97;3.53;;;28.30;55.00;;;;;;5028650;28;20489;-79
2021/06/15 12:26:43;;;;;;;6.00;4.27;;;28.30;54.40;;;;;;5038662;28;20469;-79
2021/06/15 12:29:12;;;;;;;5.40;4.37;;;28.50;53.70;;;;;;5037385;28;20546;-80
2021/06/15 12:31:50;;;;;;;4.70;3.63;;;28.50;53.40;;;;;;5031270;28;20539;-80
2021/06/15 12:34:19;;;;;;;6.30;3.93;;;28.50;52.30;;;;;;5032900;28;20416;-79
2021/06/15 12:36:52;;;;;;;6.33;3.53;;;28.50;51.10;;;;;;5026004;28;20507;-80
2021/06/15 12:39:29;;;;;;;5.83;3.90;;;28.30;52.70;;;;;;5012819;28;20457;-80
2021/06/15 12:42:13;;;;;;;5.03;3.87;;;28.40;52.40;;;;;;5047044;28;20876;-80
2021/06/15 12:44:42;;;;;;;4.10;3.80;;;28.40;51.50;;;;;;5051572;28;20415;-80
2021/06/15 12:47:14;;;;;;;4.00;3.60;;;28.50;51.00;;;;;;5031999;28;20445;-80
2021/06/15 12:49:54;;;;;;;9.27;4.40;;;28.50;52.20;;;;;;5030769;28;20963;-79
2021/06/15 12:52:35;;;;;;;6.80;4.17;;;28.60;50.20;;;;;;5027711;28;20448;-80
2021/06/15 12:55:13;;;;;;;6.87;3.90;;;28.50;50.40;;;;;;5034910;28;20897;-80
2021/06/15 12:57:41;;;;;;;6.77;4.47;;;28.60;52.30;;;;;;5035051;28;20570;-79
2021/06/15 13:00:10;;;;;;;4.03;3.33;;;28.60;50.10;;;;;;5030032;28;21058;-80
2021/06/15 13:02:38;;;;;;;4.30;3.60;;;28.70;48.30;;;;;;5017589;28;20463;-79
2021/06/15 13:05:16;;;;;;;6.07;4.10;;;28.80;50.70;;;;;;5014755;28;20839;-79